EHRD/RTM METAR and TAF weather

Enter ICAO airport designator
Station Type Date Time Source
EHRD METAR 2019/12/12 11:55 UTC NOAA

EHRD 121155Z AUTO 18012KT 140V220 9999 NCD 06/03 Q0997 NOSIG


Station Type Date Time Source
EHRD Decoded METAR 2019/12/12 11:55 UTC NOAA

Rotterdam Airport Zestienhoven, Netherlands (EHRD) 51-57N 004-27E -4M
Dec 12, 2019 - 06:55 AM EST / 2019.12.12 1155 UTC
Wind: from the S (180 degrees) at 14 MPH (12 KT) (direction variable):0
Visibility: greater than 7 mile(s):0
Temperature: 42 F (6 C)
Dew Point: 37 F (3 C)
Relative Humidity: 81%
Pressure (altimeter): 29.44 in. Hg (0997 hPa)
ob: EHRD 121155Z AUTO 18012KT 140V220 9999 NCD 06/03 Q0997 NOSIG
cycle: 12

Station Type Date Time Source
EHRD TAF 2019/12/12 12:27 UTC NOAA

TAF EHRD 121057Z 1212/1318 18013KT 9999 FEW015
BECMG 1213/1216 16016G26KT PROB30
TEMPO 1215/1219 7000 -RA BKN015
BECMG 1219/1222 6000 -RA BKN012
TEMPO 1222/1301 17020G30KT 4000 RADZ BKN007
BECMG 1300/1302 17010KT 9999 NSW
TEMPO 1301/1310 4000 RADZ BKN007
BECMG 1308/1311 28014KT BKN025
TEMPO 1310/1318 5000 RA SHRA SCT015CB BKN018

Example: see airport list